Geokinetics Inc (NASDAQOTH:GEOKQ)

CAPS Rating: No stars

The Company is a global provider of seismic data acquisition services in land, marsh and swamp and shallow water environments to the oil and natural gas industry.

Results 1 - 99 of 118 : 1 2 Next »
Top
Pick
Member Name Member
Rating
Start
Date
Call Time
Frame
Start
Price
Stock
Gain
Index
Gain
Score Commentary
artcorvelay < 20 5/14/2012 Outperform 1Y $1.32 -99.43% +39.95% -139.38 0 Comment
MoneyPlusSport < 20 1/25/2012 Underperform 5Y $2.00 -99.62% +43.19% +142.81 0 Comment
jdparksASI < 20 9/7/2011 Outperform 5Y $4.60 -99.84% +56.60% -156.44 0 Comment
GreenHillFarAway 29.32 8/22/2011 Outperform 5Y $3.99 -99.81% +66.08% -165.90 0 Comment
Rehydrogenated 33.22 3/29/2011 Outperform 5Y $8.68 -99.91% +43.35% -143.27 0 Comment
2011Fool 98.71 3/25/2011 Outperform NS $8.99 -99.92% +43.21% -143.13 0 Comment
LEGMAKER < 20 2/28/2011 Outperform 5Y $10.59 -99.93% +41.51% -141.44 0 Comment
hcve < 20 1/12/2011 Outperform 3W $9.41 -99.92% +46.74% -146.66 0 Comment
MagicMaggie < 20 12/7/2010 Outperform 5Y $9.35 -99.92% +51.65% -151.57 0 Comment
OberHund < 20 12/6/2010 Outperform 5Y $9.29 -99.92% +53.27% -153.19 0 Comment
tiger6667 < 20 12/1/2010 Outperform 5Y $8.51 -99.91% +56.36% -156.28 0 Comment
bullinnature 97.31 11/9/2009 11/8/2010 Outperform 3Y $12.72 -99.94% +74.11% -174.05 0 Comment
cletedinero < 20 10/18/2010 Outperform 5Y $7.31 -99.90% +59.14% -159.04 0 Comment
brilin 61.37 10/4/2010 Outperform 5Y $6.00 -99.88% +64.34% -164.21 0 Comment
smallandmidcap 97.05 8/10/2010 Underperform 5Y $4.51 -99.83% +67.77% +167.60 0 Comment
roth450 84.15 7/20/2010 Outperform NS $3.99 -99.81% +77.53% -177.34 0 Comment
EffinObama < 20 7/19/2010 Outperform 3Y $4.06 -99.82% +76.28% -176.10 0 Comment
thisyearslosers < 20 6/29/2010 Outperform 5Y $4.12 -99.82% +79.62% -179.43 0 Comment
institutionsdown < 20 6/22/2010 Outperform 5Y $4.88 -99.85% +68.70% -168.55 0 Comment
obsoleteaccount < 20 6/21/2010 Outperform 5Y $4.91 -99.85% +69.13% -168.98 0 Comment
jroren 99.33 6/21/2010 Underperform 3M $5.36 -99.86% +66.15% +166.01 0 Comment
iddqkfyou < 20 5/11/2010 Outperform 5Y $6.30 -99.88% +63.34% -163.22 1 Comment
asitka 27.31 5/3/2010 Outperform 1Y $8.74 -99.91% +57.44% -157.35 0 Comment
Genomac 37.37 4/26/2010 Outperform 5Y $9.58 -99.92% +54.25% -154.17 0 Comment
HotDdogv2 < 20 4/26/2010 Outperform 5Y $9.58 -99.92% +54.25% -154.17 0 Comment
aliuce 31.37 4/23/2010 Outperform NS $9.53 -99.92% +54.97% -154.89 0 Comment
iamvoltron 25.03 4/22/2010 Outperform 5Y $8.47 -99.91% +56.87% -156.78 0 Comment
markantonythe3rd 32.30 4/20/2010 Outperform 5Y $8.21 -99.91% +55.85% -155.75 0 Comment
dashark44 82.04 4/19/2010 Outperform 5Y $7.81 -99.90% +58.23% -158.14 0 Comment
Powderiver < 20 4/12/2010 Outperform 5Y $7.94 -99.91% +56.98% -156.88 0 Comment
manjux 39.00 4/1/2010 Underperform 3M $7.32 -99.90% +59.51% +159.41 0 Comment
blue2fire < 20 3/22/2010 Outperform 5Y $7.39 -99.90% +63.00% -162.89 0 Comment
StThomasMoreEsq2 64.18 12/29/2009 2/19/2010 Outperform 3M $9.89 -99.92% +66.74% -166.67 0 Comment
HasOrHasNot 33.84 1/28/2010 Outperform 3Y $10.04 -99.93% +70.54% -170.46 0 Comment
FreeMortal 29.50 1/20/2010 Outperform 5Y $10.34 -99.93% +65.52% -165.45 0 Comment
StGiannaMolla < 20 1/11/2010 Outperform 5Y $10.53 -99.93% +63.78% -163.71 0 Comment
Clockworker 20.66 1/6/2010 Outperform 5Y $9.84 -99.92% +65.46% -165.39 0 Comment
TMFPlatoish 95.98 12/16/2009 Outperform 5Y $9.27 -99.92% +67.86% -167.78 0 Comment
chinneymartin 59.93 11/13/2009 Outperform 5Y $13.20 -99.94% +70.99% -170.93 0 Comment
wkcgx2 < 20 11/9/2009 Outperform 5Y $13.18 -99.94% +73.17% -173.11 0 Comment
outperformONLY < 20 10/19/2009 Outperform 5Y $19.49 -99.96% +72.32% -172.28 0 Comment
pennycruncher < 20 10/19/2009 Outperform 5Y $19.49 -99.96% +72.32% -172.28 0 Comment
GIGManager < 20 10/8/2009 Outperform 3Y $19.24 -99.96% +76.03% -175.99 0 Comment
TotalStrange 91.71 8/12/2009 Outperform 1Y $14.58 -99.95% +87.44% -187.39 0 Comment
jddubya < 20 6/5/2009 Outperform 5Y $14.81 -99.95% +100.34% -200.29 0 Comment
TXmaverick < 20 6/2/2009 Underperform 3W $14.00 -99.95% +99.99% +199.93 1 Comment
marcet 71.03 5/28/2009 Outperform 5Y $13.26 -99.94% +108.91% -208.85 0 Comment
cwimbish 54.60 5/28/2009 Outperform 5Y $11.46 -99.93% +109.94% -209.88 1 Comment
theMovement 75.37 5/21/2009 Outperform 1Y $9.86 -99.92% +112.28% -212.21 0 Comment
unstoppablepeon 22.11 10/27/2008 Underperform NS $6.01 -99.88% +122.94% +222.81 1 Comment
moonleg 24.39 10/22/2008 Underperform 1Y $6.45 -99.88% +106.78% +206.66 0 Comment
Chiownknee 43.16 10/20/2008 Outperform 5Y $8.28 -99.91% +100.11% -200.02 0 Comment
IWalker182 25.86 10/17/2008 Outperform NS $8.44 -99.91% +102.68% -202.59 0 Comment
wakoma < 20 10/8/2008 Outperform NS $12.80 -99.94% +97.72% -197.66 1 Comment
istilldontcare 93.80 9/18/2008 Outperform 5Y $17.34 -99.96% +65.82% -165.78 0 Comment
unotsomuch < 20 8/20/2008 Outperform 3Y $19.10 -99.96% +52.25% -152.21 0 Comment
ejtrains 55.13 8/11/2008 Outperform NS $20.00 -99.96% +49.78% -149.74 0 Comment
joetheboss 32.99 6/11/2008 Outperform 3Y $19.57 -99.96% +44.30% -144.26 1 Comment
Sqwii < 20 6/10/2008 Outperform 1Y $20.32 -99.96% +42.96% -142.93 1 Comment
floridabull33 67.84 5/22/2008 Outperform 3M $20.64 -99.96% +39.87% -139.83 0 Comment
GDragonsDad 57.05 5/7/2008 Outperform NS $19.04 -99.96% +38.15% -138.11 0 Comment
TexasGeoTech < 20 4/30/2008 Outperform 3M $19.04 -99.96% +39.34% -139.30 0 Comment
JCASS714 65.39 4/29/2008 Outperform 5Y $18.82 -99.96% +39.89% -139.85 0 Comment
tuckerjack 32.38 4/17/2008 Outperform 5Y $19.60 -99.96% +43.12% -143.08 0 Comment
greengal1 < 20 4/17/2008 Outperform 3Y $19.60 -99.96% +43.12% -143.08 1 Comment
ctnotebo < 20 4/11/2008 Outperform 3Y $17.56 -99.96% +44.54% -144.49 0 Comment
louisianacoonie 37.14 3/31/2008 Outperform NS $17.95 -99.96% +47.60% -147.56 0 Comment
bengalmomof4 78.37 3/28/2008 Underperform 3M $17.78 -99.96% +46.56% +146.52 0 Comment
chad07gt < 20 3/27/2008 Outperform NS $17.78 -99.96% +46.37% -146.33 0 Comment
MoltenTofu < 20 3/14/2008 Outperform NS $17.34 -99.96% +47.52% -147.48 0 Comment
AgendaPacific 38.70 3/14/2008 Outperform 3Y $17.34 -99.96% +47.52% -147.48 0 Comment
ToeInsider 36.80 3/10/2008 Outperform NS $16.26 -99.95% +50.90% -150.85 0 Comment
altitudeaddict 30.37 2/28/2008 Outperform 5Y $17.94 -99.96% +42.73% -142.69 0 Comment
tritterup 65.94 2/26/2008 Outperform NS $18.36 -99.96% +41.85% -141.81 0 Comment
arindamd < 20 2/26/2008 Outperform 1Y $17.79 -99.96% +42.75% -142.71 1 Comment
aalvarma < 20 2/20/2008 Outperform 1Y $17.66 -99.96% +46.19% -146.14 0 Comment
dmgchess 44.28 2/20/2008 Outperform 1Y $17.66 -99.96% +46.19% -146.14 0 Comment
thetoxman 79.65 2/14/2008 Outperform 1Y $17.31 -99.96% +43.03% -142.98 0 Comment
thatguy99 30.72 2/5/2008 Outperform 5Y $17.79 -99.96% +44.09% -144.05 0 Comment
mopomi 84.28 1/24/2008 Outperform 5Y $18.76 -99.96% +45.98% -145.94 0 Comment
ATWDLimited < 20 1/23/2008 Outperform NS $18.34 -99.96% +50.88% -150.83 0 Comment
financeman101 < 20 1/17/2008 Outperform NS $16.85 -99.96% +47.07% -147.02 0 Comment
evreeland 27.53 1/16/2008 Outperform 1Y $16.25 -99.95% +43.01% -142.97 0 Comment
Obyss 72.21 12/31/2007 Outperform 3W $19.14 -99.96% +33.16% -133.12 0 Comment
Kenster35OR < 20 12/24/2007 Outperform 1Y $20.20 -99.96% +31.62% -131.58 0 Comment
StockRakedotcom < 20 12/13/2007 Outperform NS $22.40 -99.97% +32.77% -132.73 0 Comment
everything4less 38.75 12/13/2007 Outperform 1Y $22.40 -99.97% +32.77% -132.73 0 Comment
beachlokal < 20 12/12/2007 Outperform 5Y $23.10 -99.97% +31.72% -131.68 0 Comment
WavingSpices < 20 12/5/2007 Outperform NS $22.10 -99.97% +32.82% -132.79 0 Comment
SaltyGenes 46.53 11/27/2007 Outperform 5Y $22.14 -99.97% +38.93% -138.89 0 Comment
apper < 20 11/21/2007 Outperform 5Y $22.58 -99.97% +38.56% -138.52 0 Comment
ProjectJack < 20 11/5/2007 Outperform 1Y $19.90 -99.96% +31.00% -130.97 0 Comment
IntenseSpider 87.12 10/25/2007 Outperform NS $22.86 -99.97% +31.06% -131.03 0 Comment
tv5cents 86.35 10/23/2007 Outperform 5Y $22.00 -99.97% +30.01% -129.98 0 Comment
JR9901 88.91 10/22/2007 Outperform 5Y $21.85 -99.97% +32.28% -132.24 0 Comment
Garranova 88.76 10/22/2007 Outperform NS $21.85 -99.97% +32.28% -132.24 0 Comment
cleveland503 89.75 10/15/2007 Outperform NS $24.60 -99.97% +26.01% -125.98 0 Comment
ATLDARK31 < 20 10/12/2007 Outperform 5Y $24.50 -99.97% +26.67% -126.64 0 Comment
SassyThunde < 20 10/11/2007 Outperform NS $24.29 -99.97% +25.41% -125.38 0 Comment
Results 1 - 99 of 118 : 1 2 Next »

Featured Broker Partners